sensor_id;sensor_type;location;lat;lon;timestamp;pressure;altitude;pressure_sealevel;temperature;humidity
35878;BME280;21982;49.804;24.072;2022-07-23T00:00:57;97320.94;;;22.31;61.52
35878;BME280;21982;49.804;24.072;2022-07-23T00:03:23;97312.84;;;22.31;61.55
35878;BME280;21982;49.804;24.072;2022-07-23T00:05:48;97282.56;;;22.09;61.70
35878;BME280;21982;49.804;24.072;2022-07-23T00:08:14;97284.94;;;22.05;61.72
35878;BME280;21982;49.804;24.072;2022-07-23T00:10:40;97306.34;;;22.17;61.69
35878;BME280;21982;49.804;24.072;2022-07-23T00:13:05;97311.97;;;22.15;61.63
35878;BME280;21982;49.804;24.072;2022-07-23T00:15:31;97293.06;;;22.10;61.75
35878;BME280;21982;49.804;24.072;2022-07-23T00:17:57;97309.03;;;22.22;61.87
35878;BME280;21982;49.804;24.072;2022-07-23T00:20:23;97310.09;;;22.21;61.93
35878;BME280;21982;49.804;24.072;2022-07-23T00:22:50;97310.91;;;22.21;61.76
35878;BME280;21982;49.804;24.072;2022-07-23T00:25:16;97309.56;;;22.19;62.04
35878;BME280;21982;49.804;24.072;2022-07-23T00:27:42;97269.50;;;21.95;61.73
35878;BME280;21982;49.804;24.072;2022-07-23T00:30:08;97307.41;;;22.16;61.79
35878;BME280;21982;49.804;24.072;2022-07-23T00:32:54;97291.06;;;21.95;61.86
35878;BME280;21982;49.804;24.072;2022-07-23T00:35:25;97308.44;;;22.10;61.96
35878;BME280;21982;49.804;24.072;2022-07-23T00:37:51;97302.50;;;22.08;62.10
35878;BME280;21982;49.804;24.072;2022-07-23T00:40:17;97302.72;;;22.01;62.25
35878;BME280;21982;49.804;24.072;2022-07-23T00:42:43;97308.94;;;22.01;62.35
35878;BME280;21982;49.804;24.072;2022-07-23T00:45:09;97302.66;;;21.96;62.34
35878;BME280;21982;49.804;24.072;2022-07-23T00:47:35;97304.00;;;21.93;62.51
35878;BME280;21982;49.804;24.072;2022-07-23T00:50:03;97306.44;;;21.95;62.35
35878;BME280;21982;49.804;24.072;2022-07-23T00:52:29;97309.38;;;21.93;62.50
35878;BME280;21982;49.804;24.072;2022-07-23T00:54:55;97310.44;;;21.92;62.59
35878;BME280;21982;49.804;24.072;2022-07-23T00:57:20;97270.94;;;21.66;62.66
35878;BME280;21982;49.804;24.072;2022-07-23T00:59:46;97298.00;;;21.86;62.63
35878;BME280;21982;49.804;24.072;2022-07-23T01:02:11;97235.47;;;21.42;62.88
35878;BME280;21982;49.804;24.072;2022-07-23T01:04:37;97294.72;;;21.74;62.99
35878;BME280;21982;49.804;24.072;2022-07-23T01:07:03;97263.53;;;21.51;63.15
35878;BME280;21982;49.804;24.072;2022-07-23T01:09:28;97290.06;;;21.64;63.23
35878;BME280;21982;49.804;24.072;2022-07-23T01:11:55;97287.63;;;21.63;63.27
35878;BME280;21982;49.804;24.072;2022-07-23T01:14:21;97304.94;;;21.72;63.33
35878;BME280;21982;49.804;24.072;2022-07-23T01:16:48;97301.94;;;21.68;63.51
35878;BME280;21982;49.804;24.072;2022-07-23T01:19:14;97286.50;;;21.59;63.66
35878;BME280;21982;49.804;24.072;2022-07-23T01:21:43;97288.44;;;21.63;63.92
35878;BME280;21982;49.804;24.072;2022-07-23T01:24:09;97288.09;;;21.55;64.21
35878;BME280;21982;49.804;24.072;2022-07-23T01:26:35;97296.19;;;21.55;64.48
35878;BME280;21982;49.804;24.072;2022-07-23T01:29:02;97296.13;;;21.50;64.53
35878;BME280;21982;49.804;24.072;2022-07-23T01:31:27;97295.31;;;21.44;64.61
35878;BME280;21982;49.804;24.072;2022-07-23T01:33:53;97288.19;;;21.33;64.70
35878;BME280;21982;49.804;24.072;2022-07-23T01:36:19;97275.94;;;21.20;65.01
35878;BME280;21982;49.804;24.072;2022-07-23T01:38:44;97292.19;;;21.25;64.91
35878;BME280;21982;49.804;24.072;2022-07-23T01:41:09;97298.94;;;21.28;65.15
35878;BME280;21982;49.804;24.072;2022-07-23T01:43:35;97293.25;;;21.24;65.27
35878;BME280;21982;49.804;24.072;2022-07-23T01:46:00;97274.81;;;21.11;65.45
35878;BME280;21982;49.804;24.072;2022-07-23T01:48:26;97281.31;;;21.20;65.41
35878;BME280;21982;49.804;24.072;2022-07-23T01:50:51;97285.97;;;21.25;65.48
35878;BME280;21982;49.804;24.072;2022-07-23T01:53:17;97288.66;;;21.25;65.46
35878;BME280;21982;49.804;24.072;2022-07-23T01:55:42;97262.91;;;21.07;65.45
35878;BME280;21982;49.804;24.072;2022-07-23T01:58:08;97272.13;;;21.16;65.39
35878;BME280;21982;49.804;24.072;2022-07-23T02:00:33;97274.81;;;21.16;65.62
35878;BME280;21982;49.804;24.072;2022-07-23T02:02:59;97263.72;;;21.07;65.74
35878;BME280;21982;49.804;24.072;2022-07-23T02:05:25;97250.97;;;20.98;65.81
35878;BME280;21982;49.804;24.072;2022-07-23T02:07:51;97261.78;;;21.03;65.86
35878;BME280;21982;49.804;24.072;2022-07-23T02:10:17;97286.41;;;21.17;65.75
35878;BME280;21982;49.804;24.072;2022-07-23T02:12:43;97273.19;;;21.10;65.87
35878;BME280;21982;49.804;24.072;2022-07-23T02:15:08;97265.06;;;21.05;66.02
35878;BME280;21982;49.804;24.072;2022-07-23T02:17:34;97253.00;;;20.86;66.12
35878;BME280;21982;49.804;24.072;2022-07-23T02:19:59;97279.88;;;21.07;66.01
35878;BME280;21982;49.804;24.072;2022-07-23T02:22:24;97257.13;;;20.93;66.00
35878;BME280;21982;49.804;24.072;2022-07-23T02:24:50;97274.13;;;20.99;65.91
35878;BME280;21982;49.804;24.072;2022-07-23T02:27:16;97272.88;;;21.06;65.95
35878;BME280;21982;49.804;24.072;2022-07-23T02:29:41;97263.94;;;21.01;65.86
35878;BME280;21982;49.804;24.072;2022-07-23T02:32:07;97277.44;;;21.06;65.80
35878;BME280;21982;49.804;24.072;2022-07-23T02:34:32;97260.38;;;20.95;65.69
35878;BME280;21982;49.804;24.072;2022-07-23T02:36:58;97280.13;;;21.06;65.91
35878;BME280;21982;49.804;24.072;2022-07-23T02:39:23;97278.75;;;21.03;65.85
35878;BME280;21982;49.804;24.072;2022-07-23T02:41:49;97277.13;;;21.02;65.85
35878;BME280;21982;49.804;24.072;2022-07-23T02:44:14;97275.75;;;21.00;65.77
35878;BME280;21982;49.804;24.072;2022-07-23T02:46:40;97283.34;;;21.03;65.80
35878;BME280;21982;49.804;24.072;2022-07-23T02:49:05;97269.81;;;20.98;65.84
35878;BME280;21982;49.804;24.072;2022-07-23T02:51:31;97283.84;;;21.00;65.94
35878;BME280;21982;49.804;24.072;2022-07-23T02:53:56;97285.97;;;20.98;66.07
35878;BME280;21982;49.804;24.072;2022-07-23T02:56:21;97284.03;;;20.93;66.05
35878;BME280;21982;49.804;24.072;2022-07-23T02:58:47;97284.00;;;20.88;65.83
35878;BME280;21982;49.804;24.072;2022-07-23T03:01:12;97288.41;;;20.99;65.72
35878;BME280;21982;49.804;24.072;2022-07-23T03:03:38;97287.66;;;21.04;65.80
35878;BME280;21982;49.804;24.072;2022-07-23T03:06:03;97289.22;;;21.00;65.61
35878;BME280;21982;49.804;24.072;2022-07-23T03:08:29;97302.22;;;21.08;65.59
35878;BME280;21982;49.804;24.072;2022-07-23T03:10:54;97281.97;;;21.00;65.54
35878;BME280;21982;49.804;24.072;2022-07-23T03:13:19;97287.72;;;21.09;65.25
35878;BME280;21982;49.804;24.072;2022-07-23T03:15:45;97285.81;;;21.10;65.00
35878;BME280;21982;49.804;24.072;2022-07-23T03:18:11;97286.13;;;21.13;65.04
35878;BME280;21982;49.804;24.072;2022-07-23T03:20:36;97288.38;;;21.21;64.85
35878;BME280;21982;49.804;24.072;2022-07-23T03:23:02;97197.94;;;20.66;64.72
35878;BME280;21982;49.804;24.072;2022-07-23T03:25:27;97271.88;;;21.18;64.67
35878;BME280;21982;49.804;24.072;2022-07-23T03:27:53;97292.78;;;21.32;64.47
35878;BME280;21982;49.804;24.072;2022-07-23T03:30:18;97282.00;;;21.32;64.37
35878;BME280;21982;49.804;24.072;2022-07-23T03:32:44;97270.72;;;21.35;64.28
35878;BME280;21982;49.804;24.072;2022-07-23T03:35:10;97269.59;;;21.31;63.84
35878;BME280;21982;49.804;24.072;2022-07-23T03:37:35;97269.09;;;21.34;64.14
35878;BME280;21982;49.804;24.072;2022-07-23T03:40:01;97226.53;;;21.04;63.91
35878;BME280;21982;49.804;24.072;2022-07-23T03:42:27;97259.34;;;21.28;63.97
35878;BME280;21982;49.804;24.072;2022-07-23T03:44:52;97292.66;;;21.54;63.81
35878;BME280;21982;49.804;24.072;2022-07-23T03:47:17;97227.22;;;21.22;63.58
35878;BME280;21982;49.804;24.072;2022-07-23T03:49:47;97284.13;;;21.62;63.68
35878;BME280;21982;49.804;24.072;2022-07-23T03:52:12;97280.66;;;21.67;63.43
35878;BME280;21982;49.804;24.072;2022-07-23T03:54:38;97276.84;;;21.63;63.29
35878;BME280;21982;49.804;24.072;2022-07-23T03:57:03;97280.38;;;21.68;63.06
35878;BME280;21982;49.804;24.072;2022-07-23T03:59:29;97267.13;;;21.62;62.88
35878;BME280;21982;49.804;24.072;2022-07-23T04:01:54;97274.69;;;21.65;62.75
35878;BME280;21982;49.804;24.072;2022-07-23T04:04:20;97280.66;;;21.67;62.56
35878;BME280;21982;49.804;24.072;2022-07-23T04:06:45;97285.81;;;21.73;62.70
35878;BME280;21982;49.804;24.072;2022-07-23T04:09:11;97277.72;;;21.73;62.63
35878;BME280;21982;49.804;24.072;2022-07-23T04:11:37;97292.63;;;21.86;62.36
35878;BME280;21982;49.804;24.072;2022-07-23T04:14:02;97309.94;;;21.95;62.30
35878;BME280;21982;49.804;24.072;2022-07-23T04:16:28;97279.69;;;21.88;62.28
35878;BME280;21982;49.804;24.072;2022-07-23T04:18:54;97279.16;;;21.91;61.95
35878;BME280;21982;49.804;24.072;2022-07-23T04:21:19;97256.50;;;21.82;61.84
35878;BME280;21982;49.804;24.072;2022-07-23T04:23:44;97299.06;;;22.17;61.76
35878;BME280;21982;49.804;24.072;2022-07-23T04:26:10;97292.84;;;22.22;61.21
35878;BME280;21982;49.804;24.072;2022-07-23T04:28:35;97311.25;;;22.35;60.69
35878;BME280;21982;49.804;24.072;2022-07-23T04:31:01;97301.59;;;22.44;60.21
35878;BME280;21982;49.804;24.072;2022-07-23T04:33:26;97306.50;;;22.52;59.88
35878;BME280;21982;49.804;24.072;2022-07-23T04:35:51;97304.34;;;22.64;59.61
35878;BME280;21982;49.804;24.072;2022-07-23T04:38:17;97299.00;;;22.74;59.69
35878;BME280;21982;49.804;24.072;2022-07-23T04:40:42;97281.78;;;22.81;58.65
35878;BME280;21982;49.804;24.072;2022-07-23T04:43:08;97295.56;;;23.04;58.46
35878;BME280;21982;49.804;24.072;2022-07-23T04:45:33;97278.03;;;23.12;57.66
35878;BME280;21982;49.804;24.072;2022-07-23T04:47:58;97290.19;;;23.30;57.04
35878;BME280;21982;49.804;24.072;2022-07-23T04:50:24;97299.66;;;23.43;56.11
35878;BME280;21982;49.804;24.072;2022-07-23T04:52:49;97294.81;;;23.50;56.11
35878;BME280;21982;49.804;24.072;2022-07-23T04:55:16;97286.72;;;23.55;55.10
35878;BME280;21982;49.804;24.072;2022-07-23T04:57:41;97306.97;;;23.88;54.65
35878;BME280;21982;49.804;24.072;2022-07-23T05:00:07;97289.34;;;24.00;54.31
35878;BME280;21982;49.804;24.072;2022-07-23T05:02:33;97295.47;;;24.42;53.96
35878;BME280;21982;49.804;24.072;2022-07-23T05:04:59;97291.97;;;24.41;53.19
35878;BME280;21982;49.804;24.072;2022-07-23T05:07:24;97293.03;;;24.40;53.05
35878;BME280;21982;49.804;24.072;2022-07-23T05:09:50;97291.72;;;24.32;53.33
35878;BME280;21982;49.804;24.072;2022-07-23T05:12:15;97298.72;;;24.44;53.05
35878;BME280;21982;49.804;24.072;2022-07-23T05:14:41;97285.69;;;24.56;52.74
35878;BME280;21982;49.804;24.072;2022-07-23T05:17:07;97284.75;;;24.76;52.00
35878;BME280;21982;49.804;24.072;2022-07-23T05:19:34;97305.41;;;25.16;51.65
35878;BME280;21982;49.804;24.072;2022-07-23T05:21:59;97288.69;;;25.37;51.37
35878;BME280;21982;49.804;24.072;2022-07-23T05:24:25;97301.84;;;25.88;50.31
35878;BME280;21982;49.804;24.072;2022-07-23T05:26:50;97264.09;;;26.16;49.34
35878;BME280;21982;49.804;24.072;2022-07-23T05:29:16;97283.75;;;26.74;48.10
35878;BME280;21982;49.804;24.072;2022-07-23T05:31:41;97296.38;;;27.26;47.60
35878;BME280;21982;49.804;24.072;2022-07-23T05:34:06;97288.75;;;27.61;47.08
35878;BME280;21982;49.804;24.072;2022-07-23T05:36:32;97274.44;;;28.01;46.03
35878;BME280;21982;49.804;24.072;2022-07-23T05:38:58;97291.09;;;28.68;44.66
35878;BME280;21982;49.804;24.072;2022-07-23T05:41:23;97273.22;;;28.90;43.88
35878;BME280;21982;49.804;24.072;2022-07-23T05:43:49;97290.53;;;29.44;43.30
35878;BME280;21982;49.804;24.072;2022-07-23T05:46:14;97282.94;;;29.63;42.76
35878;BME280;21982;49.804;24.072;2022-07-23T05:48:40;97294.06;;;29.97;42.49
35878;BME280;21982;49.804;24.072;2022-07-23T05:51:07;97292.72;;;30.09;41.77
35878;BME280;21982;49.804;24.072;2022-07-23T05:53:34;97275.53;;;30.17;41.35
35878;BME280;21982;49.804;24.072;2022-07-23T05:56:00;97292.78;;;30.65;41.00
35878;BME280;21982;49.804;24.072;2022-07-23T05:58:25;97275.59;;;30.91;40.99
35878;BME280;21982;49.804;24.072;2022-07-23T06:00:51;97291.09;;;31.39;40.00
35878;BME280;21982;49.804;24.072;2022-07-23T06:03:16;97275.94;;;31.67;39.56
35878;BME280;21982;49.804;24.072;2022-07-23T06:05:42;97268.28;;;31.98;38.79
35878;BME280;21982;49.804;24.072;2022-07-23T06:08:13;97289.75;;;32.43;37.77
35878;BME280;21982;49.804;24.072;2022-07-23T06:10:39;97289.16;;;32.58;37.48
35878;BME280;21982;49.804;24.072;2022-07-23T06:13:04;97256.75;;;32.60;37.05
35878;BME280;21982;49.804;24.072;2022-07-23T06:15:32;97257.81;;;32.77;36.83
35878;BME280;21982;49.804;24.072;2022-07-23T06:17:58;97281.78;;;33.09;36.62
35878;BME280;21982;49.804;24.072;2022-07-23T06:20:23;97254.81;;;33.11;36.37
35878;BME280;21982;49.804;24.072;2022-07-23T06:22:49;97286.66;;;33.45;35.85
35878;BME280;21982;49.804;24.072;2022-07-23T06:25:14;97243.22;;;33.26;35.46
35878;BME280;21982;49.804;24.072;2022-07-23T06:27:41;97246.03;;;33.39;35.47
35878;BME280;21982;49.804;24.072;2022-07-23T06:30:07;97281.47;;;33.97;35.20
35878;BME280;21982;49.804;24.072;2022-07-23T06:32:33;97245.09;;;34.25;34.67
35878;BME280;21982;49.804;24.072;2022-07-23T06:34:59;97267.97;;;35.02;33.88
35878;BME280;21982;49.804;24.072;2022-07-23T06:37:26;97270.47;;;35.32;33.44
35878;BME280;21982;49.804;24.072;2022-07-23T06:39:52;97192.03;;;34.85;33.38
35878;BME280;21982;49.804;24.072;2022-07-23T06:42:17;97274.25;;;35.55;33.48
35878;BME280;21982;49.804;24.072;2022-07-23T06:44:43;97268.88;;;35.74;33.00
35878;BME280;21982;49.804;24.072;2022-07-23T06:47:08;97267.50;;;35.80;32.68
35878;BME280;21982;49.804;24.072;2022-07-23T06:49:34;97262.09;;;36.15;32.65
35878;BME280;21982;49.804;24.072;2022-07-23T06:52:02;97284.84;;;37.10;31.23
35878;BME280;21982;49.804;24.072;2022-07-23T06:54:27;97284.28;;;37.75;30.64
35878;BME280;21982;49.804;24.072;2022-07-23T06:56:53;97276.44;;;38.00;30.57
35878;BME280;21982;49.804;24.072;2022-07-23T06:59:18;97285.00;;;37.33;31.25
35878;BME280;21982;49.804;24.072;2022-07-23T07:01:44;97289.13;;;37.62;31.08
35878;BME280;21982;49.804;24.072;2022-07-23T07:04:12;97279.53;;;37.75;30.58
35878;BME280;21982;49.804;24.072;2022-07-23T07:06:41;97297.59;;;36.80;30.87
35878;BME280;21982;49.804;24.072;2022-07-23T07:09:06;97285.47;;;35.62;32.46
35878;BME280;21982;49.804;24.072;2022-07-23T07:11:32;97281.88;;;34.69;33.52
35878;BME280;21982;49.804;24.072;2022-07-23T07:13:57;97290.63;;;34.02;34.68
35878;BME280;21982;49.804;24.072;2022-07-23T07:16:23;97280.19;;;34.52;34.37
35878;BME280;21982;49.804;24.072;2022-07-23T07:18:48;97281.31;;;35.40;33.18
35878;BME280;21982;49.804;24.072;2022-07-23T07:21:14;97283.84;;;36.33;31.83
35878;BME280;21982;49.804;24.072;2022-07-23T07:23:39;97277.28;;;37.23;31.22
35878;BME280;21982;49.804;24.072;2022-07-23T07:26:05;97288.94;;;37.94;30.29
35878;BME280;21982;49.804;24.072;2022-07-23T07:28:30;97269.72;;;38.01;29.84
35878;BME280;21982;49.804;24.072;2022-07-23T07:30:59;97282.63;;;37.93;29.94
35878;BME280;21982;49.804;24.072;2022-07-23T07:38:35;97288.44;;;38.30;29.07
35878;BME280;21982;49.804;24.072;2022-07-23T07:41:01;97259.06;;;38.22;29.17
35878;BME280;21982;49.804;24.072;2022-07-23T07:43:27;97271.94;;;38.60;29.28
35878;BME280;21982;49.804;24.072;2022-07-23T07:46:05;97259.34;;;38.63;29.03
35878;BME280;21982;49.804;24.072;2022-07-23T07:51:06;97249.31;;;39.07;28.71
35878;BME280;21982;49.804;24.072;2022-07-23T07:53:31;97205.75;;;39.38;27.98
35878;BME280;21982;49.804;24.072;2022-07-23T07:55:57;97275.66;;;40.32;27.28
35878;BME280;21982;49.804;24.072;2022-07-23T07:58:22;97271.13;;;40.61;27.02
35878;BME280;21982;49.804;24.072;2022-07-23T08:00:48;97265.44;;;40.94;26.43
35878;BME280;21982;49.804;24.072;2022-07-23T08:03:16;97279.59;;;41.47;26.16
35878;BME280;21982;49.804;24.072;2022-07-23T08:05:42;97253.38;;;41.41;25.46
35878;BME280;21982;49.804;24.072;2022-07-23T08:08:08;97286.47;;;41.78;25.42
35878;BME280;21982;49.804;24.072;2022-07-23T08:10:34;97287.75;;;42.09;25.03
35878;BME280;21982;49.804;24.072;2022-07-23T08:13:00;97285.78;;;42.21;24.73
35878;BME280;21982;49.804;24.072;2022-07-23T08:15:27;97272.66;;;42.18;24.81
35878;BME280;21982;49.804;24.072;2022-07-23T08:17:53;97262.31;;;42.00;24.79
35878;BME280;21982;49.804;24.072;2022-07-23T08:20:21;97258.25;;;41.69;25.09
35878;BME280;21982;49.804;24.072;2022-07-23T08:22:58;97286.34;;;41.43;25.15
35878;BME280;21982;49.804;24.072;2022-07-23T08:27:54;97267.69;;;41.47;25.83
35878;BME280;21982;49.804;24.072;2022-07-23T08:30:20;97273.06;;;42.12;25.53
35878;BME280;21982;49.804;24.072;2022-07-23T08:35:23;97254.69;;;43.07;23.41
35878;BME280;21982;49.804;24.072;2022-07-23T08:37:49;97255.09;;;43.09;23.81
35878;BME280;21982;49.804;24.072;2022-07-23T08:40:14;97255.84;;;43.28;23.30
35878;BME280;21982;49.804;24.072;2022-07-23T08:42:40;97285.94;;;43.72;23.02
35878;BME280;21982;49.804;24.072;2022-07-23T08:45:08;97277.16;;;43.73;22.72
35878;BME280;21982;49.804;24.072;2022-07-23T08:47:36;97291.84;;;43.85;22.63
35878;BME280;21982;49.804;24.072;2022-07-23T08:50:02;97253.09;;;43.13;22.81
35878;BME280;21982;49.804;24.072;2022-07-23T08:52:28;97268.69;;;42.72;23.37
35878;BME280;21982;49.804;24.072;2022-07-23T08:54:56;97261.50;;;42.81;22.62
35878;BME280;21982;49.804;24.072;2022-07-23T08:57:22;97257.91;;;42.99;23.41
35878;BME280;21982;49.804;24.072;2022-07-23T08:59:47;97272.44;;;43.56;23.06
35878;BME280;21982;49.804;24.072;2022-07-23T09:02:12;97275.19;;;43.67;23.55
35878;BME280;21982;49.804;24.072;2022-07-23T09:04:38;97272.13;;;43.40;23.34
35878;BME280;21982;49.804;24.072;2022-07-23T09:07:04;97275.44;;;42.74;23.91
35878;BME280;21982;49.804;24.072;2022-07-23T09:09:30;97276.66;;;42.45;24.07
35878;BME280;21982;49.804;24.072;2022-07-23T09:12:07;97250.38;;;42.71;24.12
35878;BME280;21982;49.804;24.072;2022-07-23T09:14:40;97246.81;;;42.85;23.49
35878;BME280;21982;49.804;24.072;2022-07-23T09:17:11;97278.09;;;43.35;23.92
35878;BME280;21982;49.804;24.072;2022-07-23T09:19:36;97271.13;;;43.86;23.38
35878;BME280;21982;49.804;24.072;2022-07-23T09:25:14;97273.53;;;44.42;21.99
35878;BME280;21982;49.804;24.072;2022-07-23T09:27:49;97258.00;;;44.79;21.91
35878;BME280;21982;49.804;24.072;2022-07-23T09:30:17;97255.09;;;44.93;21.55
35878;BME280;21982;49.804;24.072;2022-07-23T09:32:42;97265.84;;;44.98;22.07
35878;BME280;21982;49.804;24.072;2022-07-23T09:35:11;97257.16;;;44.89;21.75
35878;BME280;21982;49.804;24.072;2022-07-23T09:37:37;97271.19;;;45.20;22.12
35878;BME280;21982;49.804;24.072;2022-07-23T09:40:09;97274.94;;;45.40;21.95
35878;BME280;21982;49.804;24.072;2022-07-23T09:42:38;97253.16;;;44.90;21.58
35878;BME280;21982;49.804;24.072;2022-07-23T09:45:10;97265.22;;;44.80;21.90
35878;BME280;21982;49.804;24.072;2022-07-23T09:47:37;97265.00;;;45.01;21.46
35878;BME280;21982;49.804;24.072;2022-07-23T09:52:32;97256.47;;;43.67;21.43
35878;BME280;21982;49.804;24.072;2022-07-23T09:55:04;97248.78;;;42.02;22.03
35878;BME280;21982;49.804;24.072;2022-07-23T09:57:31;97245.19;;;41.98;23.00
35878;BME280;21982;49.804;24.072;2022-07-23T09:59:58;97250.81;;;42.59;23.42
35878;BME280;21982;49.804;24.072;2022-07-23T10:02:27;97250.28;;;43.17;21.49
35878;BME280;21982;49.804;24.072;2022-07-23T10:04:54;97247.00;;;43.47;22.31
35878;BME280;21982;49.804;24.072;2022-07-23T10:07:22;97239.50;;;44.03;22.10
35878;BME280;21982;49.804;24.072;2022-07-23T10:09:50;97231.53;;;44.05;21.09
35878;BME280;21982;49.804;24.072;2022-07-23T10:12:18;97233.72;;;43.72;22.06
35878;BME280;21982;49.804;24.072;2022-07-23T10:15:06;97234.06;;;43.82;21.75
35878;BME280;21982;49.804;24.072;2022-07-23T10:17:32;97232.22;;;43.57;21.64
35878;BME280;21982;49.804;24.072;2022-07-23T10:19:58;97221.34;;;43.77;20.94
35878;BME280;21982;49.804;24.072;2022-07-23T10:22:29;97228.06;;;44.38;21.28
35878;BME280;21982;49.804;24.072;2022-07-23T10:38:30;97210.34;;;44.97;20.76
35878;BME280;21982;49.804;24.072;2022-07-23T10:41:02;97203.41;;;45.08;20.95
35878;BME280;21982;49.804;24.072;2022-07-23T10:43:28;97142.28;;;44.80;21.58
35878;BME280;21982;49.804;24.072;2022-07-23T10:45:55;97209.75;;;44.75;22.37
35878;BME280;21982;49.804;24.072;2022-07-23T10:48:22;97201.38;;;43.82;23.12
35878;BME280;21982;49.804;24.072;2022-07-23T10:51:14;97206.66;;;43.69;22.48
35878;BME280;21982;49.804;24.072;2022-07-23T10:56:15;97197.09;;;44.26;21.33
35878;BME280;21982;49.804;24.072;2022-07-23T10:58:48;97197.31;;;43.94;22.64
35878;BME280;21982;49.804;24.072;2022-07-23T11:03:58;97195.97;;;43.57;22.06
35878;BME280;21982;49.804;24.072;2022-07-23T11:17:23;97162.63;;;44.39;19.86
35878;BME280;21982;49.804;24.072;2022-07-23T11:22:48;97191.66;;;44.90;19.09
35878;BME280;21982;49.804;24.072;2022-07-23T11:25:29;97197.31;;;43.94;19.62
35878;BME280;21982;49.804;24.072;2022-07-23T11:28:11;97185.28;;;43.41;19.94
35878;BME280;21982;49.804;24.072;2022-07-23T11:30:45;97187.13;;;42.82;20.10
35878;BME280;21982;49.804;24.072;2022-07-23T11:35:38;97160.91;;;42.37;20.80
35878;BME280;21982;49.804;24.072;2022-07-23T11:38:22;97163.31;;;43.54;19.87
35878;BME280;21982;49.804;24.072;2022-07-23T11:40:52;97186.88;;;44.05;19.17
35878;BME280;21982;49.804;24.072;2022-07-23T11:43:19;97175.22;;;43.65;19.59
35878;BME280;21982;49.804;24.072;2022-07-23T11:45:53;97175.72;;;43.42;19.42
35878;BME280;21982;49.804;24.072;2022-07-23T11:48:22;97157.31;;;43.59;19.12
35878;BME280;21982;49.804;24.072;2022-07-23T11:50:48;97170.50;;;43.48;19.45
35878;BME280;21982;49.804;24.072;2022-07-23T11:53:21;97123.75;;;43.00;19.39
35878;BME280;21982;49.804;24.072;2022-07-23T11:55:47;97168.69;;;43.17;19.13
35878;BME280;21982;49.804;24.072;2022-07-23T11:58:12;97134.00;;;43.32;19.30
35878;BME280;21982;49.804;24.072;2022-07-23T12:00:40;97161.06;;;43.31;18.95
35878;BME280;21982;49.804;24.072;2022-07-23T12:03:07;97161.72;;;41.98;20.25
35878;BME280;21982;49.804;24.072;2022-07-23T12:05:35;97122.41;;;41.71;20.64
35878;BME280;21982;49.804;24.072;2022-07-23T12:08:06;97157.28;;;42.72;19.40
35878;BME280;21982;49.804;24.072;2022-07-23T12:10:43;97142.16;;;42.73;18.85
35878;BME280;21982;49.804;24.072;2022-07-23T12:13:12;97140.69;;;42.15;19.58
35878;BME280;21982;49.804;24.072;2022-07-23T12:15:47;97136.72;;;42.09;20.00
35878;BME280;21982;49.804;24.072;2022-07-23T12:18:17;97111.28;;;42.14;19.64
35878;BME280;21982;49.804;24.072;2022-07-23T12:20:48;97147.41;;;42.28;19.83
35878;BME280;21982;49.804;24.072;2022-07-23T12:23:16;97129.97;;;41.78;19.82
35878;BME280;21982;49.804;24.072;2022-07-23T12:25:44;97154.88;;;41.35;20.13
35878;BME280;21982;49.804;24.072;2022-07-23T12:28:21;97145.28;;;41.08;20.35
35878;BME280;21982;49.804;24.072;2022-07-23T12:33:15;97137.75;;;40.36;21.20
35878;BME280;21982;49.804;24.072;2022-07-23T12:35:46;97147.63;;;39.85;21.55
35878;BME280;21982;49.804;24.072;2022-07-23T12:38:18;97137.66;;;39.37;22.05
35878;BME280;21982;49.804;24.072;2022-07-23T12:40:47;97120.94;;;39.26;22.34
35878;BME280;21982;49.804;24.072;2022-07-23T12:43:32;97145.25;;;39.80;21.92
35878;BME280;21982;49.804;24.072;2022-07-23T12:46:15;97145.53;;;40.16;21.64
35878;BME280;21982;49.804;24.072;2022-07-23T12:51:28;97145.25;;;39.80;22.33
35878;BME280;21982;49.804;24.072;2022-07-23T12:54:07;97138.63;;;39.51;22.61
35878;BME280;21982;49.804;24.072;2022-07-23T12:56:36;97077.09;;;38.98;22.75
35878;BME280;21982;49.804;24.072;2022-07-23T12:59:07;97143.72;;;39.09;23.28
35878;BME280;21982;49.804;24.072;2022-07-23T13:01:57;97107.06;;;38.29;23.02
35878;BME280;21982;49.804;24.072;2022-07-23T13:04:27;97131.81;;;37.96;23.65
35878;BME280;21982;49.804;24.072;2022-07-23T13:06:58;97132.78;;;37.61;24.19
35878;BME280;21982;49.804;24.072;2022-07-23T13:09:26;97086.50;;;37.32;24.12
35878;BME280;21982;49.804;24.072;2022-07-23T13:11:53;97116.09;;;37.54;24.50
35878;BME280;21982;49.804;24.072;2022-07-23T13:14:20;97109.19;;;37.44;24.09
35878;BME280;21982;49.804;24.072;2022-07-23T13:16:50;97107.38;;;37.29;25.24
35878;BME280;21982;49.804;24.072;2022-07-23T13:19:16;97116.19;;;36.77;25.49
35878;BME280;21982;49.804;24.072;2022-07-23T13:21:42;97072.38;;;36.02;25.95
35878;BME280;21982;49.804;24.072;2022-07-23T13:24:12;97093.63;;;35.85;26.68
35878;BME280;21982;49.804;24.072;2022-07-23T13:26:38;97081.81;;;35.53;26.70
35878;BME280;21982;49.804;24.072;2022-07-23T13:29:04;97116.75;;;35.65;27.00
35878;BME280;21982;49.804;24.072;2022-07-23T13:31:30;97003.34;;;35.00;27.03
35878;BME280;21982;49.804;24.072;2022-07-23T13:33:55;97105.44;;;35.54;27.19
35878;BME280;21982;49.804;24.072;2022-07-23T13:36:21;97049.31;;;34.84;28.24
35878;BME280;21982;49.804;24.072;2022-07-23T13:38:47;97117.44;;;35.31;27.83
35878;BME280;21982;49.804;24.072;2022-07-23T13:41:12;97111.31;;;35.09;27.94
35878;BME280;21982;49.804;24.072;2022-07-23T13:43:38;97111.69;;;34.80;28.24
35878;BME280;21982;49.804;24.072;2022-07-23T13:46:03;97108.47;;;34.66;28.59
35878;BME280;21982;49.804;24.072;2022-07-23T13:48:29;97092.50;;;34.55;28.17